• Join FlightAware (Why Join?)
  • Login
  • US Flag 
05:19PM EDT


 

Airport Tracker/Info


-or-


 

Live Flight TrackerFlight Track Log ✈ ASH3797 ✈ 26-May-2013 ✈ KBUF - KORD

Flight Track Log - Related Links

Times and Time Zones

All times are in EDT time to prevent confusion due to time zone crossing. See the ASH3797 flight status page for this flight to view local times or setup timezone preferences in your user account.

Time Position Orientation Groundspeed Altitude Reporting Facility
EDT Latitude Longitude Course Direction KTS MPH feet Rate Location/Type
10:15AM 42.9333 -78.7500 270° West 157 181 1,400  Level Buffalo TRACON
10:16AM 42.9167 -78.7833 236° Southwest 168 193 3,100 2,280 Climbing Buffalo TRACON
10:17AM 42.9333 -78.8500 289° West 205 236 5,800 2,520 Climbing Buffalo TRACON
10:18AM 42.9167 -78.9333 255° West 230 265 8,600 2,340 Climbing Toronto Center
10:19AM 42.9667 -79.3604 270° West  Level FlightAware Approximate
10:19AM 42.9333 -79.0333 283° West 260 299 10,900  Level Toronto Center
10:20AM 42.9667 -79.4899 270° West  Level FlightAware Approximate
10:20AM 42.9333 -79.1500 270° West 280 322 13,600  Level Toronto Center
10:21AM 42.9333 -79.2500 270° West 290 334 16,100 2,220 Climbing Toronto Center
10:22AM 42.9500 -79.3667 281° West 300 345 18,100 2,040 Climbing Toronto Center
10:23AM 42.9500 -79.4667 270° West 310 357 20,200 2,100 Climbing Toronto Center
10:24AM 42.9667 -79.6167 279° West 320 368 22,300 1,860 Climbing Toronto Center
10:25AM 42.9667 -79.7167 270° West 320 368 24,000 1,800 Climbing Toronto Center
10:26AM 42.9667 -79.8667 270° West 330 380 25,900 1,620 Climbing Toronto Center
10:27AM 42.9833 -79.9667 283° West 330 380 27,300 840 Climbing Toronto Center
10:28AM 42.9833 -80.1333 270° West 360 414 27,600 720 Climbing Toronto Center
10:29AM 43.0000 -80.2667 280° West 380 437 28,800 1,080 Climbing Toronto Center
10:30AM 43.0000 -80.4000 270° West 390 449 29,800 600 Climbing Toronto Center
10:31AM 43.0000 -80.5667 270° West 390 449 30,000 60 Climbing Toronto Center
10:32AM 43.0167 -80.7000 280° West 390 449 30,000  Level Toronto Center
10:33AM 43.0000 -80.8333 260° West 380 437 30,000  Level Toronto Center
10:34AM 43.0167 -81.0000 278° West 390 449 30,000  Level Toronto Center
10:35AM 43.0167 -81.1333 270° West 390 449 30,000  Level Toronto Center
10:36AM 43.0167 -81.3000 270° West 390 449 30,000  Level Toronto Center
10:37AM 43.0167 -81.4500 270° West 400 460 30,000  Level Toronto Center
10:38AM 43.0167 -81.6000 270° West 400 460 30,000  Level Toronto Center
10:39AM 43.0167 -81.7500 270° West 400 460 30,000  Level Toronto Center
10:40AM 43.0000 -81.9167 262° West 400 460 30,000  Level Toronto Center
10:41AM 43.0000 -82.0500 270° West 390 449 30,000  Level Toronto Center
10:42AM 43.0000 -82.2167 270° West 390 449 30,000  Level Toronto Center
10:43AM 43.0000 -82.3500 270° West 390 449 30,000  Level Toronto Center
10:44AM 43.0000 -82.5000 270° West 390 449 30,000  Level Toronto Center
10:45AM 42.9833 -82.6500 261° West 390 449 30,000 -120 Level Toronto Center
10:45AM 43.0017 -82.6839 306° West 400 460 29,900 -1,020 Descending Cleveland Center
10:46AM 42.9989 -82.8314 269° West 400 460 28,700 -960 Descending Cleveland Center
10:47AM 42.9939 -82.9789 267° West 400 460 28,000 -360 Descending Cleveland Center
10:48AM 42.9844 -83.1233 265° West 400 460 28,000  Level Cleveland Center
10:49AM 42.9603 -83.2697 257° West 400 460 28,000  Level Cleveland Center
10:50AM 42.9336 -83.4247 257° West 405 466 28,000  Level Cleveland Center
10:51AM 42.9258 -83.5661 266° West 410 472 28,000  Level Cleveland Center
10:52AM 42.9558 -83.7008 287° West 385 443 28,000  Level Cleveland Center
10:53AM 42.9558 -83.8514 270° West 385 443 28,000  Level Cleveland Center
10:54AM 42.9411 -83.9981 262° West 390 449 28,000  Level Cleveland Center
10:55AM 42.9261 -84.1447 262° West 395 455 28,000  Level Cleveland Center
10:56AM 42.9133 -84.2939 263° West 394 453 28,000  Level Chicago Center
10:57AM 42.8989 -84.4392 262° West 390 449 28,000  Level Chicago Center
10:58AM 42.8839 -84.5889 262° West 396 456 28,000  Level Chicago Center
10:59AM 42.8692 -84.7367 262° West 396 456 28,000  Level Chicago Center
11:00AM 42.8533 -84.8897 262° West 404 465 28,000  Level Chicago Center
11:01AM 42.8378 -85.0392 262° West 402 463 28,000  Level Chicago Center
11:02AM 42.8208 -85.1867 261° West 398 458 28,000 -600 Level Chicago Center
11:03AM 42.8017 -85.3642 262° West 396 456 26,800 -1,260 Descending Chicago Center
11:04AM 42.7836 -85.5144 261° West 399 459 25,500 -1,320 Descending Chicago Center
11:05AM 42.7578 -85.6578 256° West 394 453 24,200 -1,320 Descending Chicago Center
11:06AM 42.7319 -85.7981 256° West 383 441 22,900 -1,320 Descending Chicago Center
11:07AM 42.7083 -85.9333 257° West 370 426 21,600 -1,320 Descending Chicago Center
11:08AM 42.6850 -86.0642 256° West 357 411 20,300 -840 Descending Chicago Center
11:09AM 42.6603 -86.1986 256° West 361 415 20,000 -180 Descending Chicago Center
11:10AM 42.6342 -86.3317 255° West 364 419 20,000 -240 Level Chicago Center
11:11AM 42.6086 -86.4664 256° West 367 422 19,600 -660 Descending Chicago Center
11:12AM 42.5831 -86.5994 255° West 366 421 18,700 -960 Descending Chicago Center
11:13AM 42.5594 -86.7367 257° West 363 418 17,700 -1,380 Descending Chicago Center
11:14AM 42.5258 -86.8583 249° West 358 412 16,000 -1,920 Descending Chicago Center
11:15AM 42.4919 -86.9806 249° West 349 402 13,900 -2,220 Descending Chicago Center
11:16AM 42.4589 -87.0936 248° West 331 381 11,600 -2,160 Descending Chicago Center
11:17AM 42.4308 -87.1956 250° West 302 348 9,600 -1,320 Descending Chicago Center
11:18AM 42.4000 -87.3089 250° West 273 314 9,000 -300 Descending Chicago Center
11:19AM 42.3731 -87.4075 250° West 278 320 9,000 -420 Level Chicago Center
11:20AM 42.3403 -87.5033 245° Southwest 280 322 8,200 -1,020 Descending Chicago Center
11:21AM 42.2858 -87.5761 225° Southwest 276 318 7,000 -660 Descending Chicago Center
11:22AM 42.2286 -87.6406 220° Southwest 271 312 6,900 -840 Descending Chicago Center
11:23AM 42.1706 -87.7067 220° Southwest 272 313 5,300 -1,620 Descending Chicago Center